createdAt,value
2019-04-16T00:01:44.405Z,43.00
2019-04-16T00:04:27.375Z,43.20
2019-04-16T00:07:25.052Z,43.20
2019-04-16T00:10:19.740Z,44.10
2019-04-16T00:12:57.239Z,43.50
2019-04-16T00:15:26.881Z,43.70
2019-04-16T00:17:56.483Z,43.60
2019-04-16T00:20:26.219Z,43.70
2019-04-16T00:23:07.870Z,43.90
2019-04-16T00:25:37.630Z,44.00
2019-04-16T00:28:08.202Z,44.00
2019-04-16T00:30:39.616Z,44.10
2019-04-16T00:33:10.727Z,44.10
2019-04-16T00:35:40.784Z,43.90
2019-04-16T00:38:10.341Z,43.80
2019-04-16T00:40:40.204Z,43.80
2019-04-16T00:43:09.743Z,43.90
2019-04-16T00:45:39.363Z,43.90
2019-04-16T00:48:10.432Z,44.00
2019-04-16T00:50:40.053Z,43.90
2019-04-16T00:53:09.651Z,44.50
2019-04-16T00:56:08.563Z,44.40
2019-04-16T00:58:38.177Z,44.10
2019-04-16T01:01:07.766Z,43.70
2019-04-16T01:03:37.325Z,43.50
2019-04-16T01:06:08.314Z,43.50
2019-04-16T01:08:38.054Z,43.40
2019-04-16T01:11:07.702Z,43.40
2019-04-16T01:13:37.244Z,43.60
2019-04-16T01:16:06.833Z,43.70
2019-04-16T01:18:38.696Z,43.60
2019-04-16T01:21:13.784Z,43.80
2019-04-16T01:23:41.091Z,43.90
2019-04-16T01:26:10.815Z,43.90
2019-04-16T01:28:46.472Z,43.90
2019-04-16T01:31:23.808Z,43.80
2019-04-16T01:34:12.436Z,44.00
2019-04-16T01:37:13.256Z,44.00
2019-04-16T01:39:47.371Z,44.10
2019-04-16T01:42:23.505Z,44.20
2019-04-16T01:44:51.591Z,44.10
2019-04-16T01:47:21.240Z,44.10
2019-04-16T01:49:50.812Z,44.00
2019-04-16T01:52:20.836Z,44.10
2019-04-16T01:54:51.490Z,44.30
2019-04-16T01:57:21.695Z,44.30
2019-04-16T01:59:51.257Z,44.40
2019-04-16T02:02:20.927Z,44.60
2019-04-16T02:04:55.212Z,44.60
2019-04-16T02:07:27.954Z,44.70
2019-04-16T02:09:57.011Z,44.80
2019-04-16T02:12:26.659Z,45.00
2019-04-16T02:14:56.196Z,45.30
2019-04-16T02:17:27.051Z,45.20
2019-04-16T02:19:57.252Z,45.60
2019-04-16T02:22:26.893Z,45.70
2019-04-16T02:24:56.524Z,46.10
2019-04-16T02:27:26.986Z,46.30
2019-04-16T02:29:58.509Z,46.60
2019-04-16T02:32:28.012Z,46.90
2019-04-16T02:34:57.566Z,47.10
2019-04-16T02:37:27.269Z,47.10
2019-04-16T02:39:56.841Z,47.40
2019-04-16T02:42:30.601Z,47.50
2019-04-16T02:44:57.691Z,47.70
2019-04-16T02:47:27.433Z,48.00
2019-04-16T02:50:01.261Z,47.80
2019-04-16T02:52:40.596Z,47.60
2019-04-16T02:55:20.382Z,47.30
2019-04-16T02:58:01.219Z,47.10
2019-04-16T03:00:53.571Z,47.00
2019-04-16T03:03:30.618Z,47.10
2019-04-16T03:06:01.554Z,47.00
2019-04-16T03:08:33.421Z,47.10
2019-04-16T03:11:02.679Z,47.10
2019-04-16T03:13:32.239Z,47.00
2019-04-16T03:16:20.912Z,47.30
2019-04-16T03:18:54.778Z,47.20
2019-04-16T03:21:27.038Z,47.20
2019-04-16T03:23:55.688Z,47.20
2019-04-16T03:26:26.331Z,47.20
2019-04-16T03:28:59.219Z,47.20
2019-04-16T03:31:28.338Z,47.10
2019-04-16T03:33:57.928Z,47.20
2019-04-16T03:36:29.521Z,47.10
2019-04-16T03:38:58.825Z,47.10
2019-04-16T03:41:28.500Z,47.10
2019-04-16T03:44:08.263Z,47.30
2019-04-16T03:46:40.190Z,47.70
2019-04-16T03:49:09.968Z,47.80
2019-04-16T03:51:39.529Z,47.70
2019-04-16T03:54:09.067Z,47.80
2019-04-16T03:56:38.708Z,47.90
2019-04-16T03:59:11.861Z,48.10
2019-04-16T04:01:39.528Z,48.20
2019-04-16T04:04:09.160Z,48.40
2019-04-16T04:06:39.522Z,48.80
2019-04-16T04:09:10.205Z,48.10
2019-04-16T04:11:41.189Z,48.20
2019-04-16T04:14:13.471Z,48.20
2019-04-16T04:16:43.787Z,48.10
2019-04-16T04:19:15.813Z,48.30
2019-04-16T04:21:45.734Z,48.30
2019-04-16T04:24:15.421Z,48.60
2019-04-16T04:26:45.488Z,48.50
2019-04-16T04:29:15.308Z,49.10
2019-04-16T04:31:45.318Z,50.10
2019-04-16T04:34:17.173Z,50.70
2019-04-16T04:36:46.647Z,50.00
2019-04-16T04:39:16.343Z,50.20
2019-04-16T04:41:46.086Z,50.70
2019-04-16T04:44:16.250Z,51.20
2019-04-16T04:46:47.116Z,51.40
2019-04-16T04:49:16.832Z,51.60
2019-04-16T04:51:46.661Z,51.80
2019-04-16T04:54:16.500Z,52.00
2019-04-16T04:56:48.224Z,52.10
2019-04-16T04:59:18.330Z,52.00
2019-04-16T05:01:48.117Z,52.00
2019-04-16T05:04:39.766Z,51.90
2019-04-16T05:07:21.946Z,52.30
2019-04-16T05:09:53.788Z,52.60
2019-04-16T05:12:23.576Z,52.90
2019-04-16T05:14:57.234Z,53.80
2019-04-16T05:17:28.404Z,52.90
2019-04-16T05:19:58.037Z,52.80
2019-04-16T05:22:28.085Z,53.10
2019-04-16T05:25:01.573Z,52.90
2019-04-16T05:27:29.671Z,52.80
2019-04-16T05:29:59.940Z,52.80
2019-04-16T05:32:33.835Z,52.50
2019-04-16T05:35:00.870Z,52.60
2019-04-16T05:37:30.420Z,52.80
2019-04-16T05:40:00.075Z,53.00
2019-04-16T05:42:29.624Z,53.00
2019-04-16T05:44:59.236Z,53.00
2019-04-16T05:47:28.850Z,53.10
2019-04-16T05:49:58.774Z,53.30
2019-04-16T05:52:32.243Z,53.40
2019-04-16T05:55:09.852Z,53.60
2019-04-16T05:57:41.307Z,53.80
2019-04-16T06:00:19.942Z,53.50
2019-04-16T06:02:50.740Z,54.00
2019-04-16T06:05:20.373Z,55.10
2019-04-16T06:07:49.978Z,54.70
2019-04-16T06:10:19.660Z,54.50
2019-04-16T06:13:04.745Z,53.90
2019-04-16T06:15:41.103Z,54.00
2019-04-16T06:18:37.979Z,52.90
2019-04-16T06:21:26.833Z,52.30
2019-04-16T06:24:14.409Z,52.60
2019-04-16T06:27:02.313Z,55.10
2019-04-16T06:29:49.720Z,53.40
2019-04-16T06:32:34.559Z,53.30
2019-04-16T06:35:22.290Z,53.00
2019-04-16T06:38:13.699Z,52.90
2019-04-16T06:40:48.916Z,53.40
2019-04-16T06:43:29.588Z,53.60
2019-04-16T06:46:20.635Z,53.90
2019-04-16T06:49:03.720Z,54.20
2019-04-16T06:51:51.063Z,54.10
2019-04-16T06:54:38.469Z,53.90
2019-04-16T06:57:33.011Z,54.00
2019-04-16T07:00:24.867Z,54.00
2019-04-16T07:03:11.500Z,53.80
2019-04-16T07:05:55.978Z,53.70
2019-04-16T07:08:53.452Z,53.50
2019-04-16T07:11:23.803Z,53.70
2019-04-16T07:13:53.416Z,54.10
2019-04-16T07:16:27.902Z,53.90
2019-04-16T07:18:54.441Z,53.70
2019-04-16T07:21:24.356Z,53.50
2019-04-16T07:23:57.989Z,53.70
2019-04-16T07:26:25.451Z,53.90
2019-04-16T07:29:01.299Z,54.60
2019-04-16T07:31:40.316Z,54.70
2019-04-16T07:34:29.035Z,54.50
2019-04-16T07:37:20.644Z,54.10
2019-04-16T07:40:08.918Z,54.10
2019-04-16T07:42:52.144Z,53.60
2019-04-16T07:45:37.846Z,52.40
2019-04-16T07:48:26.890Z,52.30
2019-04-16T07:51:16.717Z,52.20
2019-04-16T07:54:03.966Z,52.60
2019-04-16T07:56:34.648Z,52.00
2019-04-16T07:59:04.642Z,51.70
2019-04-16T08:01:36.417Z,51.40
2019-04-16T08:04:06.036Z,51.00
2019-04-16T08:06:35.965Z,51.00
2019-04-16T08:09:07.616Z,50.60
2019-04-16T08:11:37.697Z,50.40
2019-04-16T08:14:09.799Z,50.60
2019-04-16T08:16:47.120Z,50.50
2019-04-16T08:19:12.270Z,50.40
2019-04-16T08:21:44.297Z,50.40
2019-04-16T08:24:24.671Z,50.50
2019-04-16T08:26:55.106Z,50.20
2019-04-16T08:29:26.498Z,50.20
2019-04-16T08:31:56.113Z,50.90
2019-04-16T08:34:25.829Z,51.70
2019-04-16T08:36:55.501Z,51.00
2019-04-16T08:39:25.344Z,50.90
2019-04-16T08:41:54.878Z,50.90
2019-04-16T08:44:24.472Z,49.80
2019-04-16T08:46:54.159Z,49.70
2019-04-16T08:49:23.702Z,49.50
2019-04-16T08:51:53.313Z,48.90
2019-04-16T08:54:23.093Z,48.60
2019-04-16T08:56:52.683Z,48.20
2019-04-16T08:59:23.307Z,48.00
2019-04-16T09:01:57.959Z,48.10
2019-04-16T09:04:27.517Z,48.00
2019-04-16T09:07:10.448Z,47.90
2019-04-16T09:09:33.430Z,47.10
2019-04-16T09:12:09.146Z,47.00
2019-04-16T09:14:41.240Z,46.30
2019-04-16T09:17:22.863Z,46.00
2019-04-16T09:19:56.597Z,45.80
2019-04-16T09:22:26.472Z,45.70
2019-04-16T09:25:12.551Z,45.20
2019-04-16T09:27:42.035Z,44.80
2019-04-16T09:30:25.348Z,44.80
2019-04-16T09:33:19.939Z,44.00
2019-04-16T09:36:11.603Z,44.90
2019-04-16T09:38:45.585Z,44.30
2019-04-16T09:41:25.263Z,44.00
2019-04-16T09:43:58.162Z,44.10
2019-04-16T09:46:49.739Z,43.10
2019-04-16T09:49:04.946Z,42.80
2019-04-16T09:51:33.641Z,43.00
2019-04-16T09:54:03.349Z,43.00
2019-04-16T09:56:33.201Z,43.40
2019-04-16T09:59:05.425Z,43.10
2019-04-16T10:01:41.115Z,41.90
2019-04-16T10:04:13.094Z,42.00
2019-04-16T10:06:42.874Z,42.20
2019-04-16T10:09:12.728Z,41.40
2019-04-16T10:11:42.393Z,41.80
2019-04-16T10:14:11.949Z,41.80
2019-04-16T10:16:44.191Z,40.90
2019-04-16T10:19:14.031Z,40.20
2019-04-16T10:21:43.937Z,39.60
2019-04-16T10:24:31.666Z,39.80
2019-04-16T10:27:04.361Z,39.70
2019-04-16T10:29:34.204Z,40.00
2019-04-16T10:32:04.070Z,39.80
2019-04-16T10:34:36.279Z,39.10
2019-04-16T10:37:05.343Z,38.90
2019-04-16T10:39:43.463Z,39.20
2019-04-16T10:42:38.186Z,39.40
2019-04-16T10:45:29.713Z,39.00
2019-04-16T10:48:17.037Z,38.70
2019-04-16T10:51:06.323Z,39.20
2019-04-16T10:53:55.925Z,39.50
2019-04-16T10:56:50.613Z,39.70
2019-04-16T10:59:42.028Z,39.60
2019-04-16T11:02:28.661Z,39.30
2019-04-16T11:05:24.719Z,39.30
2019-04-16T11:07:55.025Z,38.10
2019-04-16T11:10:25.756Z,38.40
2019-04-16T11:12:55.445Z,37.70
2019-04-16T11:15:26.031Z,36.30
2019-04-16T11:17:55.684Z,35.50
2019-04-16T11:20:25.538Z,35.80
2019-04-16T11:22:55.114Z,36.70
2019-04-16T11:25:24.845Z,36.20
2019-04-16T11:27:54.443Z,36.30
2019-04-16T11:30:52.334Z,36.20
2019-04-16T11:33:22.075Z,34.80
2019-04-16T11:35:53.154Z,34.70
2019-04-16T11:38:23.130Z,35.60
2019-04-16T11:40:52.743Z,35.70
2019-04-16T11:43:22.323Z,35.40
2019-04-16T11:45:52.215Z,34.80
2019-04-16T11:48:21.762Z,35.60
2019-04-16T11:50:51.359Z,34.00
2019-04-16T11:53:21.148Z,34.00
2019-04-16T11:55:50.898Z,34.30
2019-04-16T11:58:28.328Z,33.20
2019-04-16T12:01:04.377Z,33.70
2019-04-16T12:03:50.087Z,34.40
2019-04-16T12:06:37.599Z,33.90
2019-04-16T12:09:26.730Z,32.70
2019-04-16T12:12:01.366Z,34.00
2019-04-16T12:14:42.120Z,33.40
2019-04-16T12:17:22.797Z,33.70
2019-04-16T12:20:13.844Z,34.00
2019-04-16T12:22:48.099Z,32.80
2019-04-16T12:25:35.613Z,31.00
2019-04-16T12:28:22.756Z,31.00
2019-04-16T12:31:03.807Z,29.60
2019-04-16T12:33:47.718Z,29.80
2019-04-16T12:36:25.647Z,29.90
2019-04-16T12:39:03.883Z,30.00
2019-04-16T12:41:59.931Z,30.00
2019-04-16T12:44:45.335Z,29.80
2019-04-16T12:47:15.621Z,30.20
2019-04-16T12:50:19.632Z,30.90
2019-04-16T12:53:02.336Z,30.70
2019-04-16T12:55:48.550Z,33.10
2019-04-16T12:58:27.667Z,32.60
2019-04-16T13:01:24.876Z,31.30
2019-04-16T13:04:06.562Z,30.50
2019-04-16T13:06:43.880Z,30.50
2019-04-16T13:09:31.271Z,29.80
2019-04-16T13:12:09.527Z,28.50
2019-04-16T13:15:00.910Z,28.30
2019-04-16T13:17:47.874Z,29.80
2019-04-16T13:20:52.170Z,28.20
2019-04-16T13:23:32.590Z,27.40
2019-04-16T13:26:22.323Z,27.90
2019-04-16T13:28:55.143Z,27.40
2019-04-16T13:31:23.603Z,28.00
2019-04-16T13:33:53.448Z,28.50
2019-04-16T13:36:26.767Z,28.90
2019-04-16T13:39:06.130Z,28.40
2019-04-16T13:41:36.845Z,27.60
2019-04-16T13:44:09.959Z,27.50
2019-04-16T13:46:49.392Z,27.70
2019-04-16T13:49:37.949Z,29.10
2019-04-16T13:52:09.577Z,27.50
2019-04-16T13:54:46.415Z,28.00
2019-04-16T13:57:18.998Z,29.00
2019-04-16T14:00:02.927Z,28.40
2019-04-16T14:02:58.579Z,29.60
2019-04-16T14:05:28.615Z,29.40
2019-04-16T14:07:58.615Z,29.60
2019-04-16T14:10:29.176Z,29.20
2019-04-16T14:12:59.933Z,28.60
2019-04-16T14:15:38.974Z,29.00
2019-04-16T14:18:06.881Z,29.00
2019-04-16T14:20:36.607Z,28.50
2019-04-16T14:23:06.611Z,27.90
2019-04-16T14:25:37.023Z,28.60
2019-04-16T14:28:06.950Z,28.90
2019-04-16T14:30:42.674Z,29.40
2019-04-16T14:33:14.918Z,29.60
2019-04-16T14:35:44.526Z,28.90
2019-04-16T14:38:16.965Z,29.70
2019-04-16T14:40:46.584Z,29.30
2019-04-16T14:43:19.372Z,29.60
2019-04-16T14:45:58.333Z,30.20
2019-04-16T14:48:22.899Z,30.30
2019-04-16T14:50:52.583Z,30.70
2019-04-16T14:53:51.405Z,30.60
2019-04-16T14:56:27.243Z,30.40
2019-04-16T14:59:33.564Z,30.60
2019-04-16T15:02:08.044Z,30.80
2019-04-16T15:04:57.828Z,31.40
2019-04-16T15:07:33.104Z,31.50
2019-04-16T15:10:36.819Z,31.70
2019-04-16T15:13:19.003Z,31.00
2019-04-16T15:16:14.105Z,31.40
2019-04-16T15:19:01.007Z,30.30
2019-04-16T15:21:48.340Z,31.40
2019-04-16T15:24:24.741Z,32.50
2019-04-16T15:27:17.035Z,32.60
2019-04-16T15:29:56.602Z,32.90
2019-04-16T15:33:05.267Z,32.90
2019-04-16T15:35:38.840Z,33.00
2019-04-16T15:38:31.110Z,33.00
2019-04-16T15:41:24.127Z,32.70
2019-04-16T15:50:35.772Z,33.40
2019-04-16T15:53:09.757Z,32.80
2019-04-16T15:55:52.266Z,33.10
2019-04-16T15:58:46.536Z,33.40
2019-04-16T16:01:25.867Z,33.80
2019-04-16T16:04:13.842Z,36.10
2019-04-16T16:07:01.325Z,33.80
2019-04-16T16:09:49.041Z,32.90
2019-04-16T16:12:26.735Z,31.90
2019-04-16T16:14:56.751Z,31.90
2019-04-16T16:17:26.325Z,32.50
2019-04-16T16:19:55.974Z,32.40
2019-04-16T16:22:25.778Z,31.40
2019-04-16T16:24:56.080Z,32.00
2019-04-16T16:27:26.130Z,32.50
2019-04-16T16:29:57.373Z,32.10
2019-04-16T16:32:30.533Z,31.30
2019-04-16T16:35:00.122Z,30.60
2019-04-16T16:37:29.839Z,29.60
2019-04-16T16:39:59.767Z,29.30
2019-04-16T16:42:29.815Z,29.90
2019-04-16T16:45:01.642Z,28.50
2019-04-16T16:47:39.514Z,28.60
2019-04-16T16:50:10.436Z,28.40
2019-04-16T16:52:52.782Z,27.90
2019-04-16T16:55:30.005Z,28.30
2019-04-16T16:58:07.725Z,28.30
2019-04-16T17:00:48.708Z,28.10
2019-04-16T17:03:28.612Z,28.20
2019-04-16T17:06:00.273Z,28.40
2019-04-16T17:08:30.960Z,28.50
2019-04-16T17:11:14.735Z,28.50
2019-04-16T17:13:32.421Z,28.70
2019-04-16T17:16:02.727Z,28.50
2019-04-16T17:18:32.453Z,28.30
2019-04-16T17:21:21.206Z,28.80
2019-04-16T17:23:51.111Z,29.10
2019-04-16T17:26:20.703Z,29.20
2019-04-16T17:28:50.374Z,29.60
2019-04-16T17:31:23.880Z,30.00
2019-04-16T17:33:54.230Z,30.40
2019-04-16T17:42:43.534Z,29.90
2019-04-16T17:45:35.337Z,29.80
2019-04-16T17:48:24.366Z,29.90
2019-04-16T17:51:12.045Z,30.00
2019-04-16T17:53:45.319Z,30.90
2019-04-16T17:56:32.500Z,31.60
2019-04-16T17:59:22.027Z,32.00
2019-04-16T18:02:25.050Z,32.60
2019-04-16T18:05:01.505Z,32.90
2019-04-16T18:07:50.871Z,33.40
2019-04-16T18:10:52.433Z,33.70
2019-04-16T18:13:36.442Z,33.80
2019-04-16T18:16:25.173Z,34.00
2019-04-16T18:19:09.723Z,34.30
2019-04-16T18:21:46.357Z,34.70
2019-04-16T18:24:33.657Z,35.20
2019-04-16T18:27:12.074Z,35.60
2019-04-16T18:29:49.990Z,35.70
2019-04-16T18:32:37.617Z,36.10
2019-04-16T18:35:25.503Z,36.10
2019-04-16T18:38:12.955Z,36.10
2019-04-16T18:41:04.826Z,36.30
2019-04-16T18:43:52.411Z,36.10
2019-04-16T18:46:30.302Z,36.30
2019-04-16T18:49:04.264Z,36.40
2019-04-16T18:51:34.373Z,36.80
2019-04-16T18:54:04.683Z,37.00
2019-04-16T18:56:38.463Z,37.30
2019-04-16T18:59:08.242Z,37.10
2019-04-16T19:01:39.395Z,37.90
2019-04-16T19:04:09.559Z,38.20
2019-04-16T19:06:39.507Z,38.00
2019-04-16T19:09:09.069Z,38.30
2019-04-16T19:11:40.446Z,39.30
2019-04-16T19:14:13.308Z,39.40
2019-04-16T19:16:42.318Z,38.80
2019-04-16T19:19:12.164Z,38.70
2019-04-16T19:21:42.633Z,38.90
2019-04-16T19:24:13.036Z,39.00
2019-04-16T19:26:42.648Z,39.10
2019-04-16T19:29:14.454Z,39.40
2019-04-16T19:31:44.340Z,39.30
2019-04-16T19:34:14.027Z,39.40
2019-04-16T19:36:44.791Z,39.60
2019-04-16T19:39:15.734Z,39.40
2019-04-16T19:41:45.345Z,39.50
2019-04-16T19:44:14.897Z,39.30
2019-04-16T19:46:45.992Z,39.20
2019-04-16T19:49:15.842Z,39.20
2019-04-16T19:51:45.447Z,39.20
2019-04-16T19:54:15.005Z,38.40
2019-04-16T19:56:51.186Z,38.30
2019-04-16T19:59:16.851Z,38.30
2019-04-16T20:01:46.620Z,38.00
2019-04-16T20:04:16.243Z,38.40
2019-04-16T20:06:45.812Z,38.80
2019-04-16T20:09:15.368Z,39.10
2019-04-16T20:11:45.903Z,39.50
2019-04-16T20:14:15.565Z,39.70
2019-04-16T20:16:46.268Z,40.00
2019-04-16T20:19:15.863Z,40.00
2019-04-16T20:21:48.700Z,40.10
2019-04-16T20:24:18.431Z,40.30
2019-04-16T20:26:48.064Z,40.50
2019-04-16T20:29:17.667Z,41.00
2019-04-16T20:31:47.330Z,41.20
2019-04-16T20:34:18.153Z,41.20
2019-04-16T20:36:48.863Z,41.50
2019-04-16T20:39:18.544Z,41.40
2019-04-16T20:41:52.807Z,40.70
2019-04-16T20:44:20.883Z,40.60
2019-04-16T20:46:50.520Z,41.10
2019-04-16T20:49:20.186Z,41.50
2019-04-16T20:51:49.872Z,41.80
2019-04-16T20:54:19.455Z,41.90
2019-04-16T20:56:49.985Z,42.20
2019-04-16T20:59:20.379Z,42.40
2019-04-16T21:01:49.955Z,42.60
2019-04-16T21:04:19.599Z,42.50
2019-04-16T21:06:49.203Z,42.60
2019-04-16T21:09:18.855Z,42.70
2019-04-16T21:11:48.453Z,42.80
2019-04-16T21:14:21.848Z,43.00
2019-04-16T21:16:50.470Z,43.30
2019-04-16T21:19:23.153Z,43.00
2019-04-16T21:21:55.124Z,43.40
2019-04-16T21:24:23.283Z,44.00
2019-04-16T21:26:52.963Z,43.50
2019-04-16T21:29:26.879Z,43.60
2019-04-16T21:31:59.829Z,43.60
2019-04-16T21:34:47.507Z,43.70
2019-04-16T21:37:34.828Z,43.70
2019-04-16T21:40:05.454Z,43.60
2019-04-16T21:42:35.691Z,43.80
2019-04-16T21:45:06.457Z,43.70
2019-04-16T21:47:37.286Z,43.60
2019-04-16T21:50:15.992Z,43.80
2019-04-16T21:52:42.301Z,43.80
2019-04-16T21:55:11.899Z,44.00
2019-04-16T21:57:42.770Z,44.10
2019-04-16T22:00:32.972Z,44.10
2019-04-16T22:03:09.453Z,44.30
2019-04-16T22:05:37.272Z,44.60
2019-04-16T22:08:06.921Z,44.90
2019-04-16T22:10:37.574Z,45.20
2019-04-16T22:13:07.119Z,45.10
2019-04-16T22:15:36.699Z,45.30
2019-04-16T22:18:09.084Z,45.40
2019-04-16T22:20:37.669Z,45.30
2019-04-16T22:23:07.380Z,45.40
2019-04-16T22:25:37.040Z,45.70
2019-04-16T22:28:11.382Z,45.80
2019-04-16T22:30:37.897Z,45.90
2019-04-16T22:33:07.661Z,46.00
2019-04-16T22:35:37.331Z,46.10
2019-04-16T22:38:13.268Z,46.20
2019-04-16T22:41:04.544Z,46.20
2019-04-16T22:43:51.114Z,46.10
2019-04-16T22:46:27.486Z,45.60
2019-04-16T22:49:00.979Z,45.60
2019-04-16T22:51:30.592Z,46.30
2019-04-16T22:54:07.111Z,46.70
2019-04-16T22:56:41.597Z,46.90
2019-04-16T22:59:11.120Z,47.20
2019-04-16T23:01:44.981Z,47.50
2019-04-16T23:04:17.506Z,47.80
2019-04-16T23:06:47.085Z,48.00
2019-04-16T23:09:17.808Z,48.00
2019-04-16T23:11:46.718Z,48.20
2019-04-16T23:14:17.186Z,48.50
2019-04-16T23:16:46.787Z,48.30
2019-04-16T23:19:17.408Z,48.60
2019-04-16T23:21:48.686Z,48.70
2019-04-16T23:24:23.526Z,48.90
2019-04-16T23:26:55.884Z,49.00
2019-04-16T23:29:25.456Z,48.70
2019-04-16T23:31:56.208Z,48.80
2019-04-16T23:34:25.928Z,48.90
2019-04-16T23:36:55.503Z,48.80
2019-04-16T23:39:25.103Z,48.90
2019-04-16T23:41:54.626Z,49.20
2019-04-16T23:44:32.211Z,49.30
2019-04-16T23:47:35.801Z,49.60
2019-04-16T23:50:22.980Z,50.10
2019-04-16T23:53:03.808Z,50.40
2019-04-16T23:55:51.283Z,50.80
2019-04-16T23:58:33.443Z,51.00
